Time;durP1;ratioP1;P1;durP2;ratioP2;P2;SDS_P1;SDS_P2;PMS_P1;PMS_P2;Temp;Humidity;BMP_temperature;BMP_pressure;BME280_temperature;BME280_humidity;BME280_pressure;Samples;Min_cycle;Max_cycle;Signal;HPM_P1;HPM_P2
2022/09/30 05:59:36;;;;;;;6.68;4.15;;;;;;;;;;10748416;27;20469;-83
2022/09/30 06:05:01;;;;;;;4.38;3.78;;;;;;;;;;10715523;27;20071;-83
2022/09/30 06:10:11;;;;;;;5.05;3.75;;;;;;;;;;10722831;27;20030;-83
2022/09/30 06:15:19;;;;;;;5.07;3.88;;;;;;;;;;10733011;27;20050;-84
2022/09/30 06:20:37;;;;;;;5.68;4.95;;;;;;;;;;10713394;27;20023;-83
2022/09/30 06:26:00;;;;;;;4.78;3.90;;;;;;;;;;10731067;27;20038;-83
2022/09/30 06:31:06;;;;;;;6.63;5.05;;;;;;;;;;10726785;27;20025;-83
2022/09/30 06:36:07;;;;;;;5.55;4.65;;;;;;;;;;10728322;27;20058;-83
2022/09/30 06:41:10;;;;;;;5.35;4.10;;;;;;;;;;10728290;27;20110;-84
2022/09/30 06:46:14;;;;;;;5.47;4.45;;;;;;;;;;10709689;27;20056;-84
2022/09/30 06:51:19;;;;;;;4.25;3.85;;;;;;;;;;10706773;27;20086;-83
2022/09/30 06:56:22;;;;;;;5.15;4.55;;;;;;;;;;10726275;27;20046;-83
2022/09/30 07:01:30;;;;;;;4.38;3.83;;;;;;;;;;10722876;27;20030;-83
2022/09/30 07:06:38;;;;;;;6.80;4.88;;;;;;;;;;10689663;27;20117;-81
2022/09/30 07:11:42;;;;;;;6.60;5.22;;;;;;;;;;10690957;27;20046;-80
2022/09/30 07:16:44;;;;;;;6.70;4.75;;;;;;;;;;10668693;27;20050;-83
2022/09/30 07:21:45;;;;;;;7.70;5.45;;;;;;;;;;10678294;27;20031;-80
2022/09/30 07:26:46;;;;;;;8.77;6.20;;;;;;;;;;10659805;27;20022;-81
2022/09/30 07:31:48;;;;;;;9.25;6.40;;;;;;;;;;10689702;27;20027;-84
2022/09/30 07:37:03;;;;;;;11.27;7.47;;;;;;;;;;10690504;27;20463;-84
2022/09/30 07:48:33;;;;;;;17.30;13.00;;;;;;;;;;10691195;27;20105;-85
2022/09/30 07:53:25;;;;;;;9.63;8.05;;;;;;;;;;10686907;27;20042;-84
2022/09/30 07:58:46;;;;;;;7.68;5.93;;;;;;;;;;10685018;27;20027;-85
2022/09/30 08:04:20;;;;;;;8.13;5.13;;;;;;;;;;10662343;27;20026;-84
2022/09/30 08:09:35;;;;;;;10.35;7.00;;;;;;;;;;10586995;28;20462;-85
2022/09/30 08:14:45;;;;;;;10.02;7.38;;;;;;;;;;10638582;27;20392;-86
2022/09/30 08:19:48;;;;;;;7.90;6.45;;;;;;;;;;10662492;27;20019;-87
2022/09/30 08:30:34;;;;;;;9.35;7.55;;;;;;;;;;10684771;27;20022;-87
2022/09/30 08:35:35;;;;;;;12.40;8.57;;;;;;;;;;10662825;27;20031;-85
2022/09/30 08:40:44;;;;;;;11.68;8.95;;;;;;;;;;10660233;27;20022;-88
2022/09/30 08:51:51;;;;;;;19.40;12.43;;;;;;;;;;10672734;27;20105;-86
2022/09/30 08:56:53;;;;;;;14.70;11.65;;;;;;;;;;10658184;27;20034;-88
2022/09/30 09:02:13;;;;;;;10.73;8.60;;;;;;;;;;10667676;27;20027;-84
2022/09/30 09:07:29;;;;;;;11.23;9.17;;;;;;;;;;10660991;27;20051;-87
2022/09/30 09:12:34;;;;;;;11.35;8.15;;;;;;;;;;10670091;27;20264;-87
2022/09/30 09:17:42;;;;;;;21.15;17.90;;;;;;;;;;10674585;27;20041;-86
2022/09/30 09:28:41;;;;;;;10.55;9.45;;;;;;;;;;10683356;27;20121;-85
2022/09/30 09:33:57;;;;;;;10.98;9.35;;;;;;;;;;10674121;27;20046;-87
2022/09/30 09:39:24;;;;;;;8.63;7.68;;;;;;;;;;10657388;27;20495;-85
2022/09/30 09:45:04;;;;;;;9.90;7.57;;;;;;;;;;10678441;27;20039;-85
2022/09/30 09:50:44;;;;;;;7.57;5.13;;;;;;;;;;10663145;27;20083;-85
2022/09/30 09:56:03;;;;;;;7.97;6.63;;;;;;;;;;10449576;28;20049;-86
2022/09/30 10:07:04;;;;;;;5.13;4.00;;;;;;;;;;10679763;27;20095;-85
2022/09/30 10:12:14;;;;;;;7.03;5.10;;;;;;;;;;10632966;28;20177;-84
2022/09/30 10:23:10;;;;;;;8.75;6.00;;;;;;;;;;10631262;28;20066;-84
2022/09/30 10:34:29;;;;;;;5.65;4.43;;;;;;;;;;10503330;28;20426;-84
2022/09/30 10:45:53;;;;;;;7.68;6.13;;;;;;;;;;10605884;27;20113;-85
2022/09/30 10:51:00;;;;;;;8.15;6.72;;;;;;;;;;10662542;27;20437;-84
2022/09/30 10:56:33;;;;;;;6.03;4.38;;;;;;;;;;10662149;27;20065;-85
2022/09/30 11:02:17;;;;;;;10.27;8.20;;;;;;;;;;10663834;27;20095;-85
2022/09/30 11:07:53;;;;;;;8.63;5.45;;;;;;;;;;10544967;28;20502;-85
2022/09/30 11:13:45;;;;;;;5.40;3.72;;;;;;;;;;10474544;28;20029;-86
2022/09/30 11:19:05;;;;;;;6.22;5.00;;;;;;;;;;10453086;28;20110;-85
2022/09/30 11:24:15;;;;;;;4.57;3.90;;;;;;;;;;10519493;28;20124;-85
2022/09/30 11:35:47;;;;;;;6.97;5.38;;;;;;;;;;10555445;28;20558;-84
2022/09/30 11:47:30;;;;;;;7.70;4.90;;;;;;;;;;10657023;27;20023;-85
2022/09/30 11:52:50;;;;;;;5.68;5.03;;;;;;;;;;10663085;27;20094;-85
2022/09/30 11:58:11;;;;;;;8.55;5.18;;;;;;;;;;10684045;27;20480;-85
2022/09/30 12:03:35;;;;;;;6.25;4.55;;;;;;;;;;10673725;27;20071;-87
2022/09/30 12:14:31;;;;;;;4.78;3.38;;;;;;;;;;10688186;27;20027;-84
2022/09/30 12:19:35;;;;;;;6.80;5.32;;;;;;;;;;10668837;27;20030;-85
2022/09/30 12:24:41;;;;;;;5.45;3.53;;;;;;;;;;10683212;27;20025;-85
2022/09/30 12:35:18;;;;;;;4.65;3.80;;;;;;;;;;10675608;27;20027;-86
2022/09/30 12:40:34;;;;;;;3.75;3.08;;;;;;;;;;10674797;27;20030;-87
2022/09/30 12:45:38;;;;;;;8.43;2.72;;;;;;;;;;10658858;27;20042;-85
2022/09/30 12:50:41;;;;;;;3.97;3.10;;;;;;;;;;10658638;27;20057;-85
2022/09/30 12:55:42;;;;;;;6.78;3.40;;;;;;;;;;10662075;27;20193;-85
2022/09/30 13:01:01;;;;;;;4.68;3.03;;;;;;;;;;10670128;27;20031;-85
2022/09/30 13:06:05;;;;;;;5.85;3.47;;;;;;;;;;10698179;27;20108;-83
2022/09/30 13:11:30;;;;;;;5.20;3.78;;;;;;;;;;10698646;27;20011;-87
2022/09/30 13:56:44;;;;;;;7.00;3.33;;;;;;;;;;10519238;28;20040;-85
2022/09/30 14:30:13;;;;;;;4.70;3.15;;;;;;;;;;10702779;27;20268;-87
2022/09/30 15:47:10;;;;;;;6.05;3.15;;;;;;;;;;10655660;22;20047;-81
2022/09/30 15:52:20;;;;;;;2.97;2.13;;;;;;;;;;10591290;28;20038;-80
2022/09/30 15:57:38;;;;;;;3.10;2.00;;;;;;;;;;10590012;28;20067;-81
2022/09/30 16:02:40;;;;;;;5.35;2.90;;;;;;;;;;10607159;28;20042;-80
2022/09/30 16:07:41;;;;;;;5.00;3.20;;;;;;;;;;10609131;28;20408;-82
2022/09/30 16:12:48;;;;;;;3.28;2.10;;;;;;;;;;10608283;28;20066;-81
2022/09/30 16:17:49;;;;;;;6.35;2.28;;;;;;;;;;10606277;28;20084;-81
2022/09/30 16:22:54;;;;;;;3.97;2.60;;;;;;;;;;10600001;28;20028;-82
2022/09/30 16:27:59;;;;;;;8.63;3.80;;;;;;;;;;10599466;28;20038;-80
2022/09/30 16:33:03;;;;;;;5.47;2.90;;;;;;;;;;10610459;28;20042;-83
2022/09/30 16:38:05;;;;;;;2.67;2.22;;;;;;;;;;10596205;28;20499;-83
2022/09/30 16:43:10;;;;;;;2.67;2.05;;;;;;;;;;10607563;28;20024;-82
2022/09/30 16:48:13;;;;;;;3.53;2.00;;;;;;;;;;10604523;28;20035;-83
2022/09/30 16:53:15;;;;;;;4.22;1.98;;;;;;;;;;10595001;28;20449;-83
2022/09/30 16:58:16;;;;;;;3.30;2.28;;;;;;;;;;10594881;28;20526;-83
2022/09/30 17:03:19;;;;;;;2.72;1.80;;;;;;;;;;10593596;28;20032;-81
2022/09/30 17:08:22;;;;;;;2.50;1.85;;;;;;;;;;10593264;28;20036;-82
2022/09/30 17:13:24;;;;;;;3.28;1.75;;;;;;;;;;10593431;28;20035;-83
2022/09/30 17:18:25;;;;;;;3.97;2.22;;;;;;;;;;10592725;28;20034;-83
2022/09/30 17:23:36;;;;;;;4.32;2.55;;;;;;;;;;10594505;28;20122;-80
2022/09/30 17:28:41;;;;;;;2.08;1.60;;;;;;;;;;10618138;28;20028;-80
2022/09/30 17:33:42;;;;;;;3.47;1.63;;;;;;;;;;10599465;28;20159;-81
2022/09/30 17:38:43;;;;;;;3.55;1.92;;;;;;;;;;10591701;28;20059;-81
2022/09/30 17:43:45;;;;;;;2.42;1.80;;;;;;;;;;10593558;28;20104;-82
2022/09/30 17:48:50;;;;;;;3.83;2.63;;;;;;;;;;10591080;28;20130;-82
2022/09/30 17:53:51;;;;;;;2.65;1.70;;;;;;;;;;10591073;28;20038;-82
2022/09/30 17:58:52;;;;;;;4.60;1.70;;;;;;;;;;10595263;28;20134;-83
2022/09/30 18:03:57;;;;;;;3.92;1.80;;;;;;;;;;10596451;28;20126;-80
2022/09/30 18:08:59;;;;;;;2.83;1.40;;;;;;;;;;10590505;28;20047;-81
2022/09/30 18:14:00;;;;;;;3.05;1.77;;;;;;;;;;10589434;28;20085;-81
2022/09/30 18:19:03;;;;;;;2.30;1.40;;;;;;;;;;10587907;28;20133;-81
2022/09/30 18:24:05;;;;;;;2.40;1.50;;;;;;;;;;10587951;28;20500;-81
2022/09/30 18:29:06;;;;;;;2.55;1.60;;;;;;;;;;10587805;28;20090;-81
2022/09/30 18:34:08;;;;;;;2.92;1.40;;;;;;;;;;10586859;28;20051;-81
2022/09/30 18:39:09;;;;;;;3.97;1.80;;;;;;;;;;10582539;28;20077;-81
2022/09/30 18:44:11;;;;;;;2.25;1.50;;;;;;;;;;10583913;28;20063;-81
2022/09/30 18:49:12;;;;;;;1.80;1.42;;;;;;;;;;10584718;28;20098;-80
2022/09/30 18:54:15;;;;;;;1.73;1.33;;;;;;;;;;10584857;28;20042;-80
2022/09/30 18:59:16;;;;;;;2.92;1.70;;;;;;;;;;10584041;28;20031;-81
2022/09/30 19:04:19;;;;;;;1.88;1.48;;;;;;;;;;10587464;28;20477;-80
2022/09/30 19:09:23;;;;;;;2.25;1.70;;;;;;;;;;10592158;28;20032;-81
2022/09/30 19:14:24;;;;;;;3.22;2.08;;;;;;;;;;10589935;28;20126;-79
2022/09/30 19:19:25;;;;;;;2.60;1.90;;;;;;;;;;10590587;28;20031;-79
